sensor_id;sensor_type;location;lat;lon;timestamp;P1;durP1;ratioP1;P2;durP2;ratioP2
14116;SDS011;7137;51.436;6.544;2022-10-18T00:02:38;5.37;;;3.20;;
14116;SDS011;7137;51.436;6.544;2022-10-18T00:05:41;5.30;;;3.60;;
14116;SDS011;7137;51.436;6.544;2022-10-18T00:08:42;5.53;;;3.10;;
14116;SDS011;7137;51.436;6.544;2022-10-18T00:11:49;4.50;;;2.83;;
14116;SDS011;7137;51.436;6.544;2022-10-18T00:14:50;4.50;;;2.90;;
14116;SDS011;7137;51.436;6.544;2022-10-18T00:17:52;5.20;;;3.23;;
14116;SDS011;7137;51.436;6.544;2022-10-18T00:20:59;4.40;;;3.47;;
14116;SDS011;7137;51.436;6.544;2022-10-18T00:24:02;4.70;;;3.30;;
14116;SDS011;7137;51.436;6.544;2022-10-18T00:27:04;5.63;;;3.40;;
14116;SDS011;7137;51.436;6.544;2022-10-18T00:30:06;4.80;;;3.10;;
14116;SDS011;7137;51.436;6.544;2022-10-18T00:33:08;5.30;;;3.30;;
14116;SDS011;7137;51.436;6.544;2022-10-18T00:36:11;6.47;;;3.80;;
14116;SDS011;7137;51.436;6.544;2022-10-18T00:39:14;4.97;;;3.30;;
14116;SDS011;7137;51.436;6.544;2022-10-18T00:42:17;5.43;;;3.50;;
14116;SDS011;7137;51.436;6.544;2022-10-18T00:45:21;4.97;;;3.60;;
14116;SDS011;7137;51.436;6.544;2022-10-18T00:48:23;5.27;;;3.90;;
14116;SDS011;7137;51.436;6.544;2022-10-18T00:51:33;5.13;;;3.30;;
14116;SDS011;7137;51.436;6.544;2022-10-18T00:54:39;5.53;;;3.53;;
14116;SDS011;7137;51.436;6.544;2022-10-18T00:57:42;5.30;;;3.67;;
14116;SDS011;7137;51.436;6.544;2022-10-18T01:00:45;5.50;;;3.40;;
14116;SDS011;7137;51.436;6.544;2022-10-18T01:03:47;6.50;;;3.53;;
14116;SDS011;7137;51.436;6.544;2022-10-18T01:06:52;6.30;;;3.80;;
14116;SDS011;7137;51.436;6.544;2022-10-18T01:10:09;5.40;;;3.53;;
14116;SDS011;7137;51.436;6.544;2022-10-18T01:13:25;4.67;;;3.27;;
14116;SDS011;7137;51.436;6.544;2022-10-18T01:16:36;6.70;;;4.10;;
14116;SDS011;7137;51.436;6.544;2022-10-18T01:23:35;5.37;;;3.67;;
14116;SDS011;7137;51.436;6.544;2022-10-18T01:26:57;5.70;;;3.80;;
14116;SDS011;7137;51.436;6.544;2022-10-18T01:33:48;5.13;;;3.63;;
14116;SDS011;7137;51.436;6.544;2022-10-18T01:36:54;5.37;;;3.93;;
14116;SDS011;7137;51.436;6.544;2022-10-18T01:39:57;5.23;;;3.83;;
14116;SDS011;7137;51.436;6.544;2022-10-18T01:43:02;7.10;;;4.20;;
14116;SDS011;7137;51.436;6.544;2022-10-18T01:46:05;7.07;;;4.63;;
14116;SDS011;7137;51.436;6.544;2022-10-18T01:49:10;5.73;;;4.10;;
14116;SDS011;7137;51.436;6.544;2022-10-18T01:52:12;5.80;;;3.93;;
14116;SDS011;7137;51.436;6.544;2022-10-18T01:55:14;5.37;;;3.80;;
14116;SDS011;7137;51.436;6.544;2022-10-18T01:58:17;5.67;;;3.73;;
14116;SDS011;7137;51.436;6.544;2022-10-18T02:01:27;5.90;;;3.80;;
14116;SDS011;7137;51.436;6.544;2022-10-18T02:04:39;5.37;;;3.67;;
14116;SDS011;7137;51.436;6.544;2022-10-18T02:07:43;5.43;;;3.83;;
14116;SDS011;7137;51.436;6.544;2022-10-18T02:10:52;4.77;;;3.53;;
14116;SDS011;7137;51.436;6.544;2022-10-18T02:13:56;4.50;;;3.40;;
14116;SDS011;7137;51.436;6.544;2022-10-18T02:17:03;6.07;;;3.70;;
14116;SDS011;7137;51.436;6.544;2022-10-18T02:20:09;5.53;;;3.80;;
14116;SDS011;7137;51.436;6.544;2022-10-18T02:23:13;6.10;;;4.00;;
14116;SDS011;7137;51.436;6.544;2022-10-18T02:26:17;6.20;;;3.73;;
14116;SDS011;7137;51.436;6.544;2022-10-18T02:29:19;5.53;;;4.50;;
14116;SDS011;7137;51.436;6.544;2022-10-18T02:32:23;5.43;;;4.10;;
14116;SDS011;7137;51.436;6.544;2022-10-18T02:35:31;5.20;;;3.73;;
14116;SDS011;7137;51.436;6.544;2022-10-18T02:38:36;5.80;;;4.03;;
14116;SDS011;7137;51.436;6.544;2022-10-18T02:41:38;5.10;;;4.07;;
14116;SDS011;7137;51.436;6.544;2022-10-18T02:44:41;6.27;;;4.20;;
14116;SDS011;7137;51.436;6.544;2022-10-18T02:47:42;5.50;;;4.23;;
14116;SDS011;7137;51.436;6.544;2022-10-18T02:50:45;5.67;;;3.93;;
14116;SDS011;7137;51.436;6.544;2022-10-18T02:53:47;5.80;;;4.63;;
14116;SDS011;7137;51.436;6.544;2022-10-18T02:56:48;5.80;;;4.67;;
14116;SDS011;7137;51.436;6.544;2022-10-18T02:59:50;6.57;;;4.37;;
14116;SDS011;7137;51.436;6.544;2022-10-18T03:02:51;6.03;;;4.33;;
14116;SDS011;7137;51.436;6.544;2022-10-18T03:05:55;6.60;;;4.90;;
14116;SDS011;7137;51.436;6.544;2022-10-18T03:08:56;6.60;;;4.60;;
14116;SDS011;7137;51.436;6.544;2022-10-18T03:11:58;6.00;;;4.70;;
14116;SDS011;7137;51.436;6.544;2022-10-18T03:14:59;6.27;;;4.77;;
14116;SDS011;7137;51.436;6.544;2022-10-18T03:18:01;6.67;;;5.33;;
14116;SDS011;7137;51.436;6.544;2022-10-18T03:21:05;5.57;;;4.70;;
14116;SDS011;7137;51.436;6.544;2022-10-18T03:24:07;6.00;;;4.90;;
14116;SDS011;7137;51.436;6.544;2022-10-18T03:27:09;6.07;;;5.20;;
14116;SDS011;7137;51.436;6.544;2022-10-18T03:30:11;6.37;;;5.30;;
14116;SDS011;7137;51.436;6.544;2022-10-18T03:33:12;7.27;;;5.47;;
14116;SDS011;7137;51.436;6.544;2022-10-18T03:36:15;6.20;;;5.30;;
14116;SDS011;7137;51.436;6.544;2022-10-18T03:39:17;6.77;;;5.33;;
14116;SDS011;7137;51.436;6.544;2022-10-18T03:42:18;6.83;;;5.97;;
14116;SDS011;7137;51.436;6.544;2022-10-18T03:45:20;6.57;;;5.73;;
14116;SDS011;7137;51.436;6.544;2022-10-18T03:48:21;7.73;;;6.00;;
14116;SDS011;7137;51.436;6.544;2022-10-18T03:51:25;7.33;;;6.33;;
14116;SDS011;7137;51.436;6.544;2022-10-18T03:54:26;8.57;;;6.70;;
14116;SDS011;7137;51.436;6.544;2022-10-18T03:57:28;7.90;;;6.90;;
14116;SDS011;7137;51.436;6.544;2022-10-18T04:00:29;8.00;;;6.30;;
14116;SDS011;7137;51.436;6.544;2022-10-18T04:03:31;8.47;;;6.67;;
14116;SDS011;7137;51.436;6.544;2022-10-18T04:06:34;7.90;;;6.53;;
14116;SDS011;7137;51.436;6.544;2022-10-18T04:09:36;7.50;;;6.33;;
14116;SDS011;7137;51.436;6.544;2022-10-18T04:12:37;7.77;;;6.53;;
14116;SDS011;7137;51.436;6.544;2022-10-18T04:15:39;7.70;;;6.90;;
14116;SDS011;7137;51.436;6.544;2022-10-18T04:18:40;7.30;;;6.37;;
14116;SDS011;7137;51.436;6.544;2022-10-18T04:21:43;7.43;;;6.53;;
14116;SDS011;7137;51.436;6.544;2022-10-18T04:24:45;7.50;;;6.63;;
14116;SDS011;7137;51.436;6.544;2022-10-18T04:27:46;7.93;;;6.30;;
14116;SDS011;7137;51.436;6.544;2022-10-18T04:30:48;7.33;;;6.57;;
14116;SDS011;7137;51.436;6.544;2022-10-18T04:33:51;8.57;;;6.63;;
14116;SDS011;7137;51.436;6.544;2022-10-18T04:36:53;9.00;;;7.70;;
14116;SDS011;7137;51.436;6.544;2022-10-18T04:39:55;8.33;;;7.53;;
14116;SDS011;7137;51.436;6.544;2022-10-18T04:42:57;10.33;;;9.20;;
14116;SDS011;7137;51.436;6.544;2022-10-18T04:45:58;11.27;;;8.93;;
14116;SDS011;7137;51.436;6.544;2022-10-18T04:49:00;9.97;;;8.63;;
14116;SDS011;7137;51.436;6.544;2022-10-18T04:52:03;8.73;;;7.90;;
14116;SDS011;7137;51.436;6.544;2022-10-18T04:55:05;8.30;;;7.50;;
14116;SDS011;7137;51.436;6.544;2022-10-18T04:58:07;9.23;;;8.33;;
14116;SDS011;7137;51.436;6.544;2022-10-18T05:01:09;8.27;;;7.47;;
14116;SDS011;7137;51.436;6.544;2022-10-18T05:04:10;9.90;;;8.53;;
14116;SDS011;7137;51.436;6.544;2022-10-18T05:07:14;10.07;;;9.00;;
14116;SDS011;7137;51.436;6.544;2022-10-18T05:10:16;9.10;;;8.20;;
14116;SDS011;7137;51.436;6.544;2022-10-18T05:13:17;9.77;;;8.57;;
14116;SDS011;7137;51.436;6.544;2022-10-18T05:16:19;9.83;;;8.83;;
14116;SDS011;7137;51.436;6.544;2022-10-18T05:19:20;9.33;;;8.43;;
14116;SDS011;7137;51.436;6.544;2022-10-18T05:22:23;10.00;;;8.53;;
14116;SDS011;7137;51.436;6.544;2022-10-18T05:25:25;9.87;;;8.70;;
14116;SDS011;7137;51.436;6.544;2022-10-18T05:28:27;9.93;;;8.90;;
14116;SDS011;7137;51.436;6.544;2022-10-18T05:31:29;9.93;;;8.93;;
14116;SDS011;7137;51.436;6.544;2022-10-18T05:34:30;11.60;;;10.40;;
14116;SDS011;7137;51.436;6.544;2022-10-18T05:37:33;11.30;;;10.10;;
14116;SDS011;7137;51.436;6.544;2022-10-18T05:40:36;10.63;;;9.57;;
14116;SDS011;7137;51.436;6.544;2022-10-18T05:43:38;11.20;;;10.10;;
14116;SDS011;7137;51.436;6.544;2022-10-18T05:46:40;9.90;;;8.90;;
14116;SDS011;7137;51.436;6.544;2022-10-18T05:49:42;11.20;;;10.03;;
14116;SDS011;7137;51.436;6.544;2022-10-18T05:52:45;10.70;;;9.60;;
14116;SDS011;7137;51.436;6.544;2022-10-18T05:55:46;12.60;;;11.40;;
14116;SDS011;7137;51.436;6.544;2022-10-18T05:58:48;12.63;;;11.33;;
14116;SDS011;7137;51.436;6.544;2022-10-18T06:01:51;11.90;;;10.77;;
14116;SDS011;7137;51.436;6.544;2022-10-18T06:04:52;12.90;;;11.63;;
14116;SDS011;7137;51.436;6.544;2022-10-18T06:07:56;13.80;;;12.40;;
14116;SDS011;7137;51.436;6.544;2022-10-18T06:10:57;13.40;;;12.10;;
14116;SDS011;7137;51.436;6.544;2022-10-18T06:13:59;14.20;;;12.63;;
14116;SDS011;7137;51.436;6.544;2022-10-18T06:17:01;14.57;;;13.07;;
14116;SDS011;7137;51.436;6.544;2022-10-18T06:20:04;14.87;;;13.37;;
14116;SDS011;7137;51.436;6.544;2022-10-18T06:23:07;15.33;;;13.80;;
14116;SDS011;7137;51.436;6.544;2022-10-18T06:26:10;14.77;;;13.27;;
14116;SDS011;7137;51.436;6.544;2022-10-18T06:29:11;13.03;;;11.73;;
14116;SDS011;7137;51.436;6.544;2022-10-18T06:32:13;11.90;;;10.80;;
14116;SDS011;7137;51.436;6.544;2022-10-18T06:35:15;11.93;;;10.73;;
14116;SDS011;7137;51.436;6.544;2022-10-18T06:38:18;12.73;;;11.43;;
14116;SDS011;7137;51.436;6.544;2022-10-18T06:41:20;14.47;;;12.97;;
14116;SDS011;7137;51.436;6.544;2022-10-18T06:44:21;13.80;;;12.40;;
14116;SDS011;7137;51.436;6.544;2022-10-18T06:47:23;14.57;;;12.97;;
14116;SDS011;7137;51.436;6.544;2022-10-18T06:50:24;14.53;;;12.87;;
14116;SDS011;7137;51.436;6.544;2022-10-18T06:53:28;13.50;;;12.20;;
14116;SDS011;7137;51.436;6.544;2022-10-18T06:56:31;14.50;;;13.00;;
14116;SDS011;7137;51.436;6.544;2022-10-18T06:59:32;15.90;;;14.27;;
14116;SDS011;7137;51.436;6.544;2022-10-18T07:02:34;18.20;;;15.30;;
14116;SDS011;7137;51.436;6.544;2022-10-18T07:05:36;17.80;;;15.90;;
14116;SDS011;7137;51.436;6.544;2022-10-18T07:08:39;16.93;;;15.00;;
14116;SDS011;7137;51.436;6.544;2022-10-18T07:11:41;17.20;;;15.10;;
14116;SDS011;7137;51.436;6.544;2022-10-18T07:14:42;21.60;;;17.67;;
14116;SDS011;7137;51.436;6.544;2022-10-18T07:17:44;27.20;;;20.30;;
14116;SDS011;7137;51.436;6.544;2022-10-18T07:20:46;25.57;;;20.30;;
14116;SDS011;7137;51.436;6.544;2022-10-18T07:23:49;27.33;;;21.07;;
14116;SDS011;7137;51.436;6.544;2022-10-18T07:26:51;32.53;;;23.13;;
14116;SDS011;7137;51.436;6.544;2022-10-18T07:29:53;31.33;;;23.70;;
14116;SDS011;7137;51.436;6.544;2022-10-18T07:32:54;30.60;;;23.30;;
14116;SDS011;7137;51.436;6.544;2022-10-18T07:35:59;30.73;;;24.87;;
14116;SDS011;7137;51.436;6.544;2022-10-18T07:39:02;34.63;;;26.47;;
14116;SDS011;7137;51.436;6.544;2022-10-18T07:42:04;33.87;;;25.40;;
14116;SDS011;7137;51.436;6.544;2022-10-18T07:45:06;35.30;;;27.17;;
14116;SDS011;7137;51.436;6.544;2022-10-18T07:48:08;37.17;;;26.50;;
14116;SDS011;7137;51.436;6.544;2022-10-18T07:51:10;34.87;;;25.60;;
14116;SDS011;7137;51.436;6.544;2022-10-18T07:54:13;34.40;;;27.10;;
14116;SDS011;7137;51.436;6.544;2022-10-18T07:57:14;34.47;;;27.23;;
14116;SDS011;7137;51.436;6.544;2022-10-18T08:00:16;33.80;;;27.27;;
14116;SDS011;7137;51.436;6.544;2022-10-18T08:03:17;32.10;;;26.20;;
14116;SDS011;7137;51.436;6.544;2022-10-18T08:06:20;31.80;;;25.97;;
14116;SDS011;7137;51.436;6.544;2022-10-18T08:09:23;31.70;;;25.30;;
14116;SDS011;7137;51.436;6.544;2022-10-18T08:12:25;38.57;;;27.23;;
14116;SDS011;7137;51.436;6.544;2022-10-18T08:15:27;38.77;;;27.63;;
14116;SDS011;7137;51.436;6.544;2022-10-18T08:18:29;42.97;;;29.57;;
14116;SDS011;7137;51.436;6.544;2022-10-18T08:21:31;38.70;;;29.23;;
14116;SDS011;7137;51.436;6.544;2022-10-18T08:24:34;40.93;;;29.13;;
14116;SDS011;7137;51.436;6.544;2022-10-18T08:27:35;38.17;;;27.90;;
14116;SDS011;7137;51.436;6.544;2022-10-18T08:30:37;35.70;;;27.60;;
14116;SDS011;7137;51.436;6.544;2022-10-18T08:33:38;37.80;;;28.30;;
14116;SDS011;7137;51.436;6.544;2022-10-18T08:36:40;36.63;;;27.37;;
14116;SDS011;7137;51.436;6.544;2022-10-18T08:39:43;37.03;;;26.73;;
14116;SDS011;7137;51.436;6.544;2022-10-18T08:42:48;31.83;;;25.63;;
14116;SDS011;7137;51.436;6.544;2022-10-18T08:45:58;33.93;;;27.00;;
14116;SDS011;7137;51.436;6.544;2022-10-18T08:49:00;32.23;;;25.17;;
14116;SDS011;7137;51.436;6.544;2022-10-18T08:52:05;37.17;;;27.87;;
14116;SDS011;7137;51.436;6.544;2022-10-18T08:55:17;37.13;;;29.27;;
14116;SDS011;7137;51.436;6.544;2022-10-18T08:58:25;37.17;;;28.03;;
14116;SDS011;7137;51.436;6.544;2022-10-18T09:01:33;34.27;;;27.33;;
14116;SDS011;7137;51.436;6.544;2022-10-18T09:04:45;37.80;;;27.87;;
14116;SDS011;7137;51.436;6.544;2022-10-18T09:07:55;37.50;;;28.17;;
14116;SDS011;7137;51.436;6.544;2022-10-18T09:11:17;42.60;;;29.47;;
14116;SDS011;7137;51.436;6.544;2022-10-18T09:14:40;42.13;;;28.37;;
14116;SDS011;7137;51.436;6.544;2022-10-18T09:17:57;41.37;;;29.70;;
14116;SDS011;7137;51.436;6.544;2022-10-18T09:21:13;40.47;;;28.57;;
14116;SDS011;7137;51.436;6.544;2022-10-18T09:24:21;37.60;;;27.50;;
14116;SDS011;7137;51.436;6.544;2022-10-18T09:27:33;35.97;;;27.37;;
14116;SDS011;7137;51.436;6.544;2022-10-18T09:30:43;33.97;;;26.00;;
14116;SDS011;7137;51.436;6.544;2022-10-18T09:33:49;36.70;;;26.50;;
14116;SDS011;7137;51.436;6.544;2022-10-18T09:36:54;37.20;;;26.83;;
14116;SDS011;7137;51.436;6.544;2022-10-18T09:39:59;32.17;;;25.27;;
14116;SDS011;7137;51.436;6.544;2022-10-18T09:43:09;31.43;;;25.07;;
14116;SDS011;7137;51.436;6.544;2022-10-18T09:46:17;28.63;;;22.43;;
14116;SDS011;7137;51.436;6.544;2022-10-18T09:49:21;27.33;;;23.07;;
14116;SDS011;7137;51.436;6.544;2022-10-18T09:52:26;28.70;;;21.80;;
14116;SDS011;7137;51.436;6.544;2022-10-18T09:55:34;27.93;;;22.50;;
14116;SDS011;7137;51.436;6.544;2022-10-18T09:58:43;25.67;;;22.07;;
14116;SDS011;7137;51.436;6.544;2022-10-18T10:01:46;27.93;;;23.17;;
14116;SDS011;7137;51.436;6.544;2022-10-18T10:04:48;28.00;;;21.70;;
14116;SDS011;7137;51.436;6.544;2022-10-18T10:07:51;23.70;;;20.67;;
14116;SDS011;7137;51.436;6.544;2022-10-18T10:10:58;22.13;;;19.27;;
14116;SDS011;7137;51.436;6.544;2022-10-18T10:17:22;20.53;;;17.50;;
14116;SDS011;7137;51.436;6.544;2022-10-18T10:20:28;19.83;;;17.40;;
14116;SDS011;7137;51.436;6.544;2022-10-18T10:23:36;20.57;;;16.43;;
14116;SDS011;7137;51.436;6.544;2022-10-18T10:26:39;21.77;;;18.07;;
14116;SDS011;7137;51.436;6.544;2022-10-18T10:29:52;18.23;;;16.13;;
14116;SDS011;7137;51.436;6.544;2022-10-18T10:32:56;19.30;;;15.50;;
14116;SDS011;7137;51.436;6.544;2022-10-18T10:35:58;18.93;;;15.80;;
14116;SDS011;7137;51.436;6.544;2022-10-18T10:39:02;18.67;;;15.57;;
14116;SDS011;7137;51.436;6.544;2022-10-18T10:42:10;19.40;;;15.07;;
14116;SDS011;7137;51.436;6.544;2022-10-18T10:45:15;16.90;;;13.37;;
14116;SDS011;7137;51.436;6.544;2022-10-18T10:48:16;18.90;;;16.50;;
14116;SDS011;7137;51.436;6.544;2022-10-18T10:51:26;21.40;;;16.63;;
14116;SDS011;7137;51.436;6.544;2022-10-18T10:54:30;19.40;;;15.33;;
14116;SDS011;7137;51.436;6.544;2022-10-18T10:57:35;22.00;;;16.77;;
14116;SDS011;7137;51.436;6.544;2022-10-18T11:00:39;18.97;;;15.03;;
14116;SDS011;7137;51.436;6.544;2022-10-18T11:03:44;17.20;;;13.70;;
14116;SDS011;7137;51.436;6.544;2022-10-18T11:06:48;16.83;;;11.57;;
14116;SDS011;7137;51.436;6.544;2022-10-18T11:09:56;15.70;;;10.87;;
14116;SDS011;7137;51.436;6.544;2022-10-18T11:13:05;12.43;;;9.10;;
14116;SDS011;7137;51.436;6.544;2022-10-18T11:16:25;12.07;;;9.00;;
14116;SDS011;7137;51.436;6.544;2022-10-18T11:19:37;13.20;;;8.13;;
14116;SDS011;7137;51.436;6.544;2022-10-18T11:22:46;16.80;;;10.80;;
14116;SDS011;7137;51.436;6.544;2022-10-18T11:29:35;16.90;;;12.47;;
14116;SDS011;7137;51.436;6.544;2022-10-18T11:32:46;21.33;;;14.77;;
14116;SDS011;7137;51.436;6.544;2022-10-18T11:35:55;16.57;;;11.73;;
14116;SDS011;7137;51.436;6.544;2022-10-18T11:39:06;18.77;;;11.87;;
14116;SDS011;7137;51.436;6.544;2022-10-18T11:42:18;15.03;;;10.80;;
14116;SDS011;7137;51.436;6.544;2022-10-18T11:45:29;17.63;;;10.93;;
14116;SDS011;7137;51.436;6.544;2022-10-18T11:52:10;14.70;;;8.30;;
14116;SDS011;7137;51.436;6.544;2022-10-18T11:55:24;14.43;;;8.07;;
14116;SDS011;7137;51.436;6.544;2022-10-18T11:58:41;14.67;;;8.10;;
14116;SDS011;7137;51.436;6.544;2022-10-18T12:02:01;17.13;;;9.77;;
14116;SDS011;7137;51.436;6.544;2022-10-18T12:05:17;17.37;;;9.33;;
14116;SDS011;7137;51.436;6.544;2022-10-18T12:08:20;16.70;;;9.03;;
14116;SDS011;7137;51.436;6.544;2022-10-18T12:11:27;16.17;;;9.77;;
14116;SDS011;7137;51.436;6.544;2022-10-18T12:14:32;14.77;;;8.23;;
14116;SDS011;7137;51.436;6.544;2022-10-18T12:17:38;15.17;;;7.50;;
14116;SDS011;7137;51.436;6.544;2022-10-18T12:20:45;15.03;;;8.67;;
14116;SDS011;7137;51.436;6.544;2022-10-18T12:23:50;16.13;;;7.97;;
14116;SDS011;7137;51.436;6.544;2022-10-18T12:26:56;14.47;;;5.03;;
14116;SDS011;7137;51.436;6.544;2022-10-18T12:30:00;13.07;;;5.07;;
14116;SDS011;7137;51.436;6.544;2022-10-18T12:33:09;14.77;;;8.60;;
14116;SDS011;7137;51.436;6.544;2022-10-18T12:36:21;15.73;;;8.80;;
14116;SDS011;7137;51.436;6.544;2022-10-18T12:39:39;17.07;;;8.63;;
14116;SDS011;7137;51.436;6.544;2022-10-18T12:42:45;13.63;;;6.23;;
14116;SDS011;7137;51.436;6.544;2022-10-18T12:45:50;13.27;;;6.50;;
14116;SDS011;7137;51.436;6.544;2022-10-18T12:48:59;11.40;;;6.10;;
14116;SDS011;7137;51.436;6.544;2022-10-18T12:52:05;15.03;;;7.67;;
14116;SDS011;7137;51.436;6.544;2022-10-18T12:55:33;15.27;;;8.20;;
14116;SDS011;7137;51.436;6.544;2022-10-18T12:58:36;15.20;;;7.50;;
14116;SDS011;7137;51.436;6.544;2022-10-18T13:09:14;16.30;;;7.50;;
14116;SDS011;7137;51.436;6.544;2022-10-18T13:15:52;14.67;;;7.97;;
14116;SDS011;7137;51.436;6.544;2022-10-18T13:19:09;12.40;;;7.03;;
14116;SDS011;7137;51.436;6.544;2022-10-18T13:26:18;14.30;;;6.50;;
14116;SDS011;7137;51.436;6.544;2022-10-18T13:29:32;10.80;;;5.07;;
14116;SDS011;7137;51.436;6.544;2022-10-18T13:32:49;11.60;;;5.50;;
14116;SDS011;7137;51.436;6.544;2022-10-18T13:35:56;12.20;;;5.40;;
14116;SDS011;7137;51.436;6.544;2022-10-18T13:39:03;11.80;;;5.47;;
14116;SDS011;7137;51.436;6.544;2022-10-18T13:42:27;11.47;;;5.47;;
14116;SDS011;7137;51.436;6.544;2022-10-18T13:45:42;12.17;;;4.43;;
14116;SDS011;7137;51.436;6.544;2022-10-18T13:48:55;11.97;;;4.47;;
14116;SDS011;7137;51.436;6.544;2022-10-18T13:52:00;8.90;;;4.20;;
14116;SDS011;7137;51.436;6.544;2022-10-18T13:55:20;10.53;;;3.63;;
14116;SDS011;7137;51.436;6.544;2022-10-18T13:58:42;10.83;;;3.07;;
14116;SDS011;7137;51.436;6.544;2022-10-18T14:01:54;9.53;;;3.17;;
14116;SDS011;7137;51.436;6.544;2022-10-18T14:05:15;10.23;;;3.20;;
14116;SDS011;7137;51.436;6.544;2022-10-18T14:08:34;8.57;;;3.00;;
14116;SDS011;7137;51.436;6.544;2022-10-18T14:11:39;9.37;;;3.00;;
14116;SDS011;7137;51.436;6.544;2022-10-18T14:14:45;8.97;;;2.47;;
14116;SDS011;7137;51.436;6.544;2022-10-18T14:17:53;10.53;;;3.20;;
14116;SDS011;7137;51.436;6.544;2022-10-18T14:21:00;9.13;;;3.10;;
14116;SDS011;7137;51.436;6.544;2022-10-18T14:24:08;9.37;;;2.80;;
14116;SDS011;7137;51.436;6.544;2022-10-18T14:27:18;7.70;;;2.70;;
14116;SDS011;7137;51.436;6.544;2022-10-18T14:30:22;9.93;;;2.77;;
14116;SDS011;7137;51.436;6.544;2022-10-18T14:33:24;9.47;;;2.57;;
14116;SDS011;7137;51.436;6.544;2022-10-18T14:36:28;6.57;;;1.90;;
14116;SDS011;7137;51.436;6.544;2022-10-18T14:39:40;9.03;;;2.77;;
14116;SDS011;7137;51.436;6.544;2022-10-18T14:42:46;8.63;;;2.40;;
14116;SDS011;7137;51.436;6.544;2022-10-18T14:45:49;8.47;;;2.67;;
14116;SDS011;7137;51.436;6.544;2022-10-18T14:48:52;6.17;;;2.30;;
14116;SDS011;7137;51.436;6.544;2022-10-18T14:51:55;7.47;;;2.20;;
14116;SDS011;7137;51.436;6.544;2022-10-18T14:54:58;6.70;;;2.20;;
14116;SDS011;7137;51.436;6.544;2022-10-18T14:58:02;7.67;;;2.30;;
14116;SDS011;7137;51.436;6.544;2022-10-18T15:01:05;7.83;;;2.60;;
14116;SDS011;7137;51.436;6.544;2022-10-18T15:04:08;7.77;;;2.50;;
14116;SDS011;7137;51.436;6.544;2022-10-18T15:07:12;9.83;;;2.73;;
14116;SDS011;7137;51.436;6.544;2022-10-18T15:10:18;7.33;;;2.00;;
14116;SDS011;7137;51.436;6.544;2022-10-18T15:13:22;6.07;;;2.17;;
14116;SDS011;7137;51.436;6.544;2022-10-18T15:16:27;6.30;;;2.50;;
14116;SDS011;7137;51.436;6.544;2022-10-18T15:19:31;7.67;;;1.83;;
14116;SDS011;7137;51.436;6.544;2022-10-18T15:22:34;7.47;;;1.93;;
14116;SDS011;7137;51.436;6.544;2022-10-18T15:25:36;7.47;;;1.80;;
14116;SDS011;7137;51.436;6.544;2022-10-18T15:28:39;5.43;;;1.60;;
14116;SDS011;7137;51.436;6.544;2022-10-18T15:31:50;5.83;;;1.90;;
14116;SDS011;7137;51.436;6.544;2022-10-18T15:34:52;6.73;;;1.90;;
14116;SDS011;7137;51.436;6.544;2022-10-18T15:37:54;8.00;;;1.87;;
14116;SDS011;7137;51.436;6.544;2022-10-18T15:40:59;4.57;;;1.30;;
14116;SDS011;7137;51.436;6.544;2022-10-18T15:44:04;6.70;;;1.57;;
14116;SDS011;7137;51.436;6.544;2022-10-18T15:47:15;6.20;;;1.50;;
14116;SDS011;7137;51.436;6.544;2022-10-18T15:50:24;7.27;;;1.60;;
14116;SDS011;7137;51.436;6.544;2022-10-18T15:53:49;7.53;;;1.53;;
14116;SDS011;7137;51.436;6.544;2022-10-18T15:56:51;6.10;;;1.50;;
14116;SDS011;7137;51.436;6.544;2022-10-18T15:59:56;7.27;;;1.60;;
14116;SDS011;7137;51.436;6.544;2022-10-18T16:03:03;5.87;;;1.40;;
14116;SDS011;7137;51.436;6.544;2022-10-18T16:06:08;6.27;;;1.50;;
14116;SDS011;7137;51.436;6.544;2022-10-18T16:09:11;4.63;;;1.10;;
14116;SDS011;7137;51.436;6.544;2022-10-18T16:12:16;4.90;;;1.23;;
14116;SDS011;7137;51.436;6.544;2022-10-18T16:15:18;6.03;;;1.80;;
14116;SDS011;7137;51.436;6.544;2022-10-18T16:18:21;5.37;;;1.70;;
14116;SDS011;7137;51.436;6.544;2022-10-18T16:21:25;5.17;;;1.67;;
14116;SDS011;7137;51.436;6.544;2022-10-18T16:24:28;4.93;;;1.70;;
14116;SDS011;7137;51.436;6.544;2022-10-18T16:27:29;4.70;;;1.40;;
14116;SDS011;7137;51.436;6.544;2022-10-18T16:30:31;6.70;;;1.97;;
14116;SDS011;7137;51.436;6.544;2022-10-18T16:33:36;6.00;;;2.20;;
14116;SDS011;7137;51.436;6.544;2022-10-18T16:36:38;7.93;;;2.40;;
14116;SDS011;7137;51.436;6.544;2022-10-18T16:39:39;7.07;;;2.43;;
14116;SDS011;7137;51.436;6.544;2022-10-18T16:42:41;6.47;;;2.20;;
14116;SDS011;7137;51.436;6.544;2022-10-18T16:45:42;5.57;;;2.47;;
14116;SDS011;7137;51.436;6.544;2022-10-18T16:48:46;3.97;;;1.77;;
14116;SDS011;7137;51.436;6.544;2022-10-18T16:51:48;5.00;;;1.67;;
14116;SDS011;7137;51.436;6.544;2022-10-18T16:54:50;4.97;;;1.50;;
14116;SDS011;7137;51.436;6.544;2022-10-18T16:57:51;5.90;;;1.80;;
14116;SDS011;7137;51.436;6.544;2022-10-18T17:00:52;6.57;;;1.60;;
14116;SDS011;7137;51.436;6.544;2022-10-18T17:03:56;5.47;;;1.67;;
14116;SDS011;7137;51.436;6.544;2022-10-18T17:06:57;6.10;;;1.63;;
14116;SDS011;7137;51.436;6.544;2022-10-18T17:09:59;4.37;;;1.90;;
14116;SDS011;7137;51.436;6.544;2022-10-18T17:13:00;5.43;;;1.97;;
14116;SDS011;7137;51.436;6.544;2022-10-18T17:16:02;5.97;;;2.27;;
14116;SDS011;7137;51.436;6.544;2022-10-18T17:19:06;6.57;;;2.40;;
14116;SDS011;7137;51.436;6.544;2022-10-18T17:22:10;7.33;;;2.33;;
14116;SDS011;7137;51.436;6.544;2022-10-18T17:25:11;4.40;;;2.30;;
14116;SDS011;7137;51.436;6.544;2022-10-18T17:28:14;5.73;;;2.10;;
14116;SDS011;7137;51.436;6.544;2022-10-18T17:31:16;5.67;;;2.20;;
14116;SDS011;7137;51.436;6.544;2022-10-18T17:34:19;5.83;;;2.40;;
14116;SDS011;7137;51.436;6.544;2022-10-18T17:37:21;6.40;;;2.70;;
14116;SDS011;7137;51.436;6.544;2022-10-18T17:40:22;8.67;;;2.87;;
14116;SDS011;7137;51.436;6.544;2022-10-18T17:43:24;6.80;;;2.80;;
14116;SDS011;7137;51.436;6.544;2022-10-18T17:46:25;6.77;;;3.50;;
14116;SDS011;7137;51.436;6.544;2022-10-18T17:49:28;8.47;;;4.60;;
14116;SDS011;7137;51.436;6.544;2022-10-18T17:52:30;9.17;;;5.60;;
14116;SDS011;7137;51.436;6.544;2022-10-18T17:55:32;9.43;;;5.57;;
14116;SDS011;7137;51.436;6.544;2022-10-18T17:58:34;8.70;;;4.50;;
14116;SDS011;7137;51.436;6.544;2022-10-18T18:01:35;7.23;;;4.40;;
14116;SDS011;7137;51.436;6.544;2022-10-18T18:04:38;7.53;;;3.10;;
14116;SDS011;7137;51.436;6.544;2022-10-18T18:07:39;7.80;;;3.50;;
14116;SDS011;7137;51.436;6.544;2022-10-18T18:10:41;8.77;;;4.17;;
14116;SDS011;7137;51.436;6.544;2022-10-18T18:13:42;9.80;;;4.73;;
14116;SDS011;7137;51.436;6.544;2022-10-18T18:16:44;10.60;;;4.50;;
14116;SDS011;7137;51.436;6.544;2022-10-18T18:19:48;7.87;;;4.40;;
14116;SDS011;7137;51.436;6.544;2022-10-18T18:22:49;9.17;;;5.00;;
14116;SDS011;7137;51.436;6.544;2022-10-18T18:25:53;8.70;;;4.10;;
14116;SDS011;7137;51.436;6.544;2022-10-18T18:28:56;9.63;;;3.80;;
14116;SDS011;7137;51.436;6.544;2022-10-18T18:31:57;5.70;;;2.27;;
14116;SDS011;7137;51.436;6.544;2022-10-18T18:35:00;6.27;;;2.53;;
14116;SDS011;7137;51.436;6.544;2022-10-18T18:38:01;6.60;;;2.83;;
14116;SDS011;7137;51.436;6.544;2022-10-18T18:41:04;7.97;;;3.00;;
14116;SDS011;7137;51.436;6.544;2022-10-18T18:44:06;8.27;;;3.10;;
14116;SDS011;7137;51.436;6.544;2022-10-18T18:47:08;6.87;;;3.00;;
14116;SDS011;7137;51.436;6.544;2022-10-18T18:50:12;7.03;;;3.20;;
14116;SDS011;7137;51.436;6.544;2022-10-18T18:53:13;6.83;;;3.10;;
14116;SDS011;7137;51.436;6.544;2022-10-18T18:56:16;9.63;;;3.03;;
14116;SDS011;7137;51.436;6.544;2022-10-18T18:59:19;8.60;;;3.37;;
14116;SDS011;7137;51.436;6.544;2022-10-18T19:02:20;6.33;;;3.10;;
14116;SDS011;7137;51.436;6.544;2022-10-18T19:05:23;5.50;;;2.97;;
14116;SDS011;7137;51.436;6.544;2022-10-18T19:08:27;7.47;;;3.20;;
14116;SDS011;7137;51.436;6.544;2022-10-18T19:11:29;6.73;;;3.20;;